sensor_id;sensor_type;location;lat;lon;timestamp;P1;durP1;ratioP1;P2;durP2;ratioP2
9310;SDS011;4694;52.464;13.480;2023-10-13T00:01:07;5.95;;;2.33;;
9310;SDS011;4694;52.464;13.480;2023-10-13T00:03:36;6.57;;;2.97;;
9310;SDS011;4694;52.464;13.480;2023-10-13T00:06:05;6.38;;;2.95;;
9310;SDS011;4694;52.464;13.480;2023-10-13T00:08:33;7.28;;;2.78;;
9310;SDS011;4694;52.464;13.480;2023-10-13T00:11:01;7.35;;;2.65;;
9310;SDS011;4694;52.464;13.480;2023-10-13T00:13:29;6.38;;;2.80;;
9310;SDS011;4694;52.464;13.480;2023-10-13T00:16:05;8.30;;;2.78;;
9310;SDS011;4694;52.464;13.480;2023-10-13T00:18:36;8.35;;;3.17;;
9310;SDS011;4694;52.464;13.480;2023-10-13T00:21:07;6.50;;;3.10;;
9310;SDS011;4694;52.464;13.480;2023-10-13T00:23:38;10.63;;;4.30;;
9310;SDS011;4694;52.464;13.480;2023-10-13T00:26:08;3.65;;;2.67;;
9310;SDS011;4694;52.464;13.480;2023-10-13T00:28:36;7.63;;;3.33;;
9310;SDS011;4694;52.464;13.480;2023-10-13T00:31:12;10.15;;;3.90;;
9310;SDS011;4694;52.464;13.480;2023-10-13T00:33:40;9.73;;;2.80;;
9310;SDS011;4694;52.464;13.480;2023-10-13T00:36:08;8.65;;;3.70;;
9310;SDS011;4694;52.464;13.480;2023-10-13T00:38:43;7.75;;;3.50;;
9310;SDS011;4694;52.464;13.480;2023-10-13T00:41:13;8.60;;;4.32;;
9310;SDS011;4694;52.464;13.480;2023-10-13T00:43:45;8.70;;;3.50;;
9310;SDS011;4694;52.464;13.480;2023-10-13T00:46:30;8.00;;;3.72;;
9310;SDS011;4694;52.464;13.480;2023-10-13T00:49:01;7.28;;;3.38;;
9310;SDS011;4694;52.464;13.480;2023-10-13T00:51:29;9.52;;;4.10;;
9310;SDS011;4694;52.464;13.480;2023-10-13T00:54:01;7.03;;;3.25;;
9310;SDS011;4694;52.464;13.480;2023-10-13T00:56:32;7.93;;;3.22;;
9310;SDS011;4694;52.464;13.480;2023-10-13T00:59:07;6.95;;;3.33;;
9310;SDS011;4694;52.464;13.480;2023-10-13T01:01:36;8.02;;;2.88;;
9310;SDS011;4694;52.464;13.480;2023-10-13T01:04:06;5.78;;;3.30;;
9310;SDS011;4694;52.464;13.480;2023-10-13T01:06:33;7.82;;;3.45;;
9310;SDS011;4694;52.464;13.480;2023-10-13T01:09:03;8.98;;;3.22;;
9310;SDS011;4694;52.464;13.480;2023-10-13T01:11:36;5.35;;;3.35;;
9310;SDS011;4694;52.464;13.480;2023-10-13T01:14:03;6.75;;;3.13;;
9310;SDS011;4694;52.464;13.480;2023-10-13T01:16:30;8.63;;;3.42;;
9310;SDS011;4694;52.464;13.480;2023-10-13T01:18:59;6.63;;;3.63;;
9310;SDS011;4694;52.464;13.480;2023-10-13T01:21:25;5.65;;;3.40;;
9310;SDS011;4694;52.464;13.480;2023-10-13T01:23:55;9.30;;;3.97;;
9310;SDS011;4694;52.464;13.480;2023-10-13T01:26:21;5.38;;;2.85;;
9310;SDS011;4694;52.464;13.480;2023-10-13T01:28:49;6.72;;;3.85;;
9310;SDS011;4694;52.464;13.480;2023-10-13T01:31:16;8.07;;;4.43;;
9310;SDS011;4694;52.464;13.480;2023-10-13T01:33:54;11.43;;;4.68;;
9310;SDS011;4694;52.464;13.480;2023-10-13T01:36:23;7.83;;;6.17;;
9310;SDS011;4694;52.464;13.480;2023-10-13T01:38:52;9.30;;;3.80;;
9310;SDS011;4694;52.464;13.480;2023-10-13T01:41:20;9.75;;;4.63;;
9310;SDS011;4694;52.464;13.480;2023-10-13T01:43:47;8.48;;;3.75;;
9310;SDS011;4694;52.464;13.480;2023-10-13T01:46:14;6.93;;;4.20;;
9310;SDS011;4694;52.464;13.480;2023-10-13T01:48:41;7.30;;;4.72;;
9310;SDS011;4694;52.464;13.480;2023-10-13T01:51:09;17.60;;;5.32;;
9310;SDS011;4694;52.464;13.480;2023-10-13T01:53:39;7.15;;;4.35;;
9310;SDS011;4694;52.464;13.480;2023-10-13T01:56:07;10.05;;;4.28;;
9310;SDS011;4694;52.464;13.480;2023-10-13T01:58:40;9.73;;;4.32;;
9310;SDS011;4694;52.464;13.480;2023-10-13T02:01:08;8.85;;;5.07;;
9310;SDS011;4694;52.464;13.480;2023-10-13T02:03:34;11.23;;;5.22;;
9310;SDS011;4694;52.464;13.480;2023-10-13T02:06:06;12.77;;;4.72;;
9310;SDS011;4694;52.464;13.480;2023-10-13T02:08:35;10.18;;;5.22;;
9310;SDS011;4694;52.464;13.480;2023-10-13T02:11:09;16.83;;;6.25;;
9310;SDS011;4694;52.464;13.480;2023-10-13T02:13:34;15.60;;;6.18;;
9310;SDS011;4694;52.464;13.480;2023-10-13T02:16:08;11.05;;;6.18;;
9310;SDS011;4694;52.464;13.480;2023-10-13T02:18:33;12.80;;;6.30;;
9310;SDS011;4694;52.464;13.480;2023-10-13T02:21:06;13.02;;;5.28;;
9310;SDS011;4694;52.464;13.480;2023-10-13T02:23:38;9.88;;;5.63;;
9310;SDS011;4694;52.464;13.480;2023-10-13T02:26:09;16.55;;;6.43;;
9310;SDS011;4694;52.464;13.480;2023-10-13T02:28:38;12.40;;;6.13;;
9310;SDS011;4694;52.464;13.480;2023-10-13T02:31:05;15.75;;;6.25;;
9310;SDS011;4694;52.464;13.480;2023-10-13T02:33:33;14.02;;;6.93;;
9310;SDS011;4694;52.464;13.480;2023-10-13T02:36:01;17.17;;;7.70;;
9310;SDS011;4694;52.464;13.480;2023-10-13T02:38:30;15.52;;;6.85;;
9310;SDS011;4694;52.464;13.480;2023-10-13T02:41:09;10.63;;;5.40;;
9310;SDS011;4694;52.464;13.480;2023-10-13T02:43:36;13.93;;;7.20;;
9310;SDS011;4694;52.464;13.480;2023-10-13T02:46:03;16.70;;;7.13;;
9310;SDS011;4694;52.464;13.480;2023-10-13T02:48:31;14.23;;;7.30;;
9310;SDS011;4694;52.464;13.480;2023-10-13T02:51:05;13.55;;;6.55;;
9310;SDS011;4694;52.464;13.480;2023-10-13T02:53:40;15.73;;;6.93;;
9310;SDS011;4694;52.464;13.480;2023-10-13T02:56:07;15.63;;;7.78;;
9310;SDS011;4694;52.464;13.480;2023-10-13T02:58:33;12.68;;;7.82;;
9310;SDS011;4694;52.464;13.480;2023-10-13T03:01:05;18.95;;;8.05;;
9310;SDS011;4694;52.464;13.480;2023-10-13T03:03:43;17.58;;;8.35;;
9310;SDS011;4694;52.464;13.480;2023-10-13T03:06:12;11.18;;;6.25;;
9310;SDS011;4694;52.464;13.480;2023-10-13T03:08:41;14.35;;;8.45;;
9310;SDS011;4694;52.464;13.480;2023-10-13T03:11:09;13.68;;;7.53;;
9310;SDS011;4694;52.464;13.480;2023-10-13T03:13:35;14.18;;;8.10;;
9310;SDS011;4694;52.464;13.480;2023-10-13T03:16:10;15.18;;;7.90;;
9310;SDS011;4694;52.464;13.480;2023-10-13T03:18:36;13.25;;;8.00;;
9310;SDS011;4694;52.464;13.480;2023-10-13T03:21:04;17.20;;;8.63;;
9310;SDS011;4694;52.464;13.480;2023-10-13T03:23:32;22.55;;;10.68;;
9310;SDS011;4694;52.464;13.480;2023-10-13T03:26:10;21.05;;;8.25;;
9310;SDS011;4694;52.464;13.480;2023-10-13T03:28:36;19.50;;;8.75;;
9310;SDS011;4694;52.464;13.480;2023-10-13T03:31:05;15.73;;;10.00;;
9310;SDS011;4694;52.464;13.480;2023-10-13T03:33:32;18.27;;;9.30;;
9310;SDS011;4694;52.464;13.480;2023-10-13T03:35:59;21.13;;;10.18;;
9310;SDS011;4694;52.464;13.480;2023-10-13T03:38:32;19.23;;;11.38;;
9310;SDS011;4694;52.464;13.480;2023-10-13T03:41:01;21.67;;;12.07;;
9310;SDS011;4694;52.464;13.480;2023-10-13T03:43:37;19.08;;;11.85;;
9310;SDS011;4694;52.464;13.480;2023-10-13T03:46:10;24.70;;;10.98;;
9310;SDS011;4694;52.464;13.480;2023-10-13T03:48:40;18.55;;;12.65;;
9310;SDS011;4694;52.464;13.480;2023-10-13T03:51:19;24.65;;;12.70;;
9310;SDS011;4694;52.464;13.480;2023-10-13T03:53:47;22.95;;;12.18;;
9310;SDS011;4694;52.464;13.480;2023-10-13T03:56:18;21.67;;;12.55;;
9310;SDS011;4694;52.464;13.480;2023-10-13T03:58:54;23.02;;;12.48;;
9310;SDS011;4694;52.464;13.480;2023-10-13T04:01:25;25.20;;;11.90;;
9310;SDS011;4694;52.464;13.480;2023-10-13T04:03:57;23.63;;;13.18;;
9310;SDS011;4694;52.464;13.480;2023-10-13T04:06:28;22.40;;;11.73;;
9310;SDS011;4694;52.464;13.480;2023-10-13T04:09:22;18.58;;;12.15;;
9310;SDS011;4694;52.464;13.480;2023-10-13T04:12:07;23.42;;;12.85;;
9310;SDS011;4694;52.464;13.480;2023-10-13T04:15:04;27.95;;;14.32;;
9310;SDS011;4694;52.464;13.480;2023-10-13T04:17:43;29.55;;;14.73;;
9310;SDS011;4694;52.464;13.480;2023-10-13T04:20:11;23.00;;;13.25;;
9310;SDS011;4694;52.464;13.480;2023-10-13T04:22:53;29.35;;;14.00;;
9310;SDS011;4694;52.464;13.480;2023-10-13T04:25:39;25.95;;;15.60;;
9310;SDS011;4694;52.464;13.480;2023-10-13T04:28:32;26.80;;;14.93;;
9310;SDS011;4694;52.464;13.480;2023-10-13T04:31:16;27.35;;;14.13;;
9310;SDS011;4694;52.464;13.480;2023-10-13T04:34:10;24.23;;;14.85;;
9310;SDS011;4694;52.464;13.480;2023-10-13T04:36:44;27.63;;;15.43;;
9310;SDS011;4694;52.464;13.480;2023-10-13T04:39:11;27.45;;;16.30;;
9310;SDS011;4694;52.464;13.480;2023-10-13T04:41:43;32.40;;;17.38;;
9310;SDS011;4694;52.464;13.480;2023-10-13T04:44:23;28.83;;;16.00;;
9310;SDS011;4694;52.464;13.480;2023-10-13T04:47:04;28.65;;;17.88;;
9310;SDS011;4694;52.464;13.480;2023-10-13T04:49:42;35.85;;;18.13;;
9310;SDS011;4694;52.464;13.480;2023-10-13T04:52:15;27.10;;;15.00;;
9310;SDS011;4694;52.464;13.480;2023-10-13T04:55:04;28.85;;;16.35;;
9310;SDS011;4694;52.464;13.480;2023-10-13T04:57:59;25.33;;;15.93;;
9310;SDS011;4694;52.464;13.480;2023-10-13T05:00:39;29.80;;;17.98;;
9310;SDS011;4694;52.464;13.480;2023-10-13T05:03:39;30.38;;;17.77;;
9310;SDS011;4694;52.464;13.480;2023-10-13T05:06:46;26.52;;;15.43;;
9310;SDS011;4694;52.464;13.480;2023-10-13T05:09:30;27.75;;;16.70;;
9310;SDS011;4694;52.464;13.480;2023-10-13T05:12:14;26.05;;;16.90;;
9310;SDS011;4694;52.464;13.480;2023-10-13T05:15:00;28.50;;;16.40;;
9310;SDS011;4694;52.464;13.480;2023-10-13T05:17:44;24.98;;;16.17;;
9310;SDS011;4694;52.464;13.480;2023-10-13T05:20:29;25.98;;;16.30;;
9310;SDS011;4694;52.464;13.480;2023-10-13T05:23:13;27.73;;;15.25;;
9310;SDS011;4694;52.464;13.480;2023-10-13T05:25:59;28.23;;;17.02;;
9310;SDS011;4694;52.464;13.480;2023-10-13T05:28:45;28.48;;;16.33;;
9310;SDS011;4694;52.464;13.480;2023-10-13T05:31:31;28.73;;;17.30;;
9310;SDS011;4694;52.464;13.480;2023-10-13T05:34:15;28.05;;;15.23;;
9310;SDS011;4694;52.464;13.480;2023-10-13T05:39:44;24.60;;;15.98;;
9310;SDS011;4694;52.464;13.480;2023-10-13T05:42:29;29.35;;;16.60;;
9310;SDS011;4694;52.464;13.480;2023-10-13T05:45:13;24.30;;;15.88;;
9310;SDS011;4694;52.464;13.480;2023-10-13T05:48:03;28.52;;;16.23;;
9310;SDS011;4694;52.464;13.480;2023-10-13T05:50:37;31.60;;;17.65;;
9310;SDS011;4694;52.464;13.480;2023-10-13T05:53:43;27.42;;;16.17;;
9310;SDS011;4694;52.464;13.480;2023-10-13T05:56:27;26.20;;;16.05;;
9310;SDS011;4694;52.464;13.480;2023-10-13T05:59:11;23.38;;;15.50;;
9310;SDS011;4694;52.464;13.480;2023-10-13T06:01:59;30.00;;;16.75;;
9310;SDS011;4694;52.464;13.480;2023-10-13T06:04:46;24.42;;;16.48;;
9310;SDS011;4694;52.464;13.480;2023-10-13T06:07:30;23.20;;;15.48;;
9310;SDS011;4694;52.464;13.480;2023-10-13T06:10:14;28.77;;;17.15;;
9310;SDS011;4694;52.464;13.480;2023-10-13T06:12:58;22.83;;;14.48;;
9310;SDS011;4694;52.464;13.480;2023-10-13T06:15:43;28.20;;;16.70;;
9310;SDS011;4694;52.464;13.480;2023-10-13T06:18:27;31.42;;;15.73;;
9310;SDS011;4694;52.464;13.480;2023-10-13T06:21:13;21.95;;;14.63;;
9310;SDS011;4694;52.464;13.480;2023-10-13T06:23:57;20.88;;;13.25;;
9310;SDS011;4694;52.464;13.480;2023-10-13T06:26:41;19.25;;;12.52;;
9310;SDS011;4694;52.464;13.480;2023-10-13T06:29:26;24.30;;;12.75;;
9310;SDS011;4694;52.464;13.480;2023-10-13T06:31:52;23.33;;;12.68;;
9310;SDS011;4694;52.464;13.480;2023-10-13T06:34:22;24.30;;;12.53;;
9310;SDS011;4694;52.464;13.480;2023-10-13T06:37:05;24.73;;;15.30;;
9310;SDS011;4694;52.464;13.480;2023-10-13T06:39:47;20.80;;;14.02;;
9310;SDS011;4694;52.464;13.480;2023-10-13T06:42:14;20.42;;;13.93;;
9310;SDS011;4694;52.464;13.480;2023-10-13T06:44:41;20.75;;;13.68;;
9310;SDS011;4694;52.464;13.480;2023-10-13T06:47:11;25.95;;;14.43;;
9310;SDS011;4694;52.464;13.480;2023-10-13T06:49:38;21.95;;;14.20;;
9310;SDS011;4694;52.464;13.480;2023-10-13T06:52:09;18.50;;;12.93;;
9310;SDS011;4694;52.464;13.480;2023-10-13T06:54:36;20.75;;;12.98;;
9310;SDS011;4694;52.464;13.480;2023-10-13T06:57:04;19.38;;;14.27;;
9310;SDS011;4694;52.464;13.480;2023-10-13T06:59:32;21.05;;;13.50;;
9310;SDS011;4694;52.464;13.480;2023-10-13T07:01:59;17.02;;;11.88;;
9310;SDS011;4694;52.464;13.480;2023-10-13T07:04:30;19.30;;;12.90;;
9310;SDS011;4694;52.464;13.480;2023-10-13T07:06:57;17.15;;;13.05;;
9310;SDS011;4694;52.464;13.480;2023-10-13T07:09:27;16.98;;;11.35;;
9310;SDS011;4694;52.464;13.480;2023-10-13T07:12:06;14.00;;;9.48;;
9310;SDS011;4694;52.464;13.480;2023-10-13T07:14:44;13.95;;;9.43;;
9310;SDS011;4694;52.464;13.480;2023-10-13T07:17:19;11.75;;;9.18;;
9310;SDS011;4694;52.464;13.480;2023-10-13T07:19:50;11.90;;;8.80;;
9310;SDS011;4694;52.464;13.480;2023-10-13T07:22:19;10.80;;;7.63;;
9310;SDS011;4694;52.464;13.480;2023-10-13T07:24:49;14.98;;;8.27;;
9310;SDS011;4694;52.464;13.480;2023-10-13T07:27:17;14.57;;;8.02;;
9310;SDS011;4694;52.464;13.480;2023-10-13T07:29:49;13.10;;;8.63;;
9310;SDS011;4694;52.464;13.480;2023-10-13T07:32:21;12.98;;;8.07;;
9310;SDS011;4694;52.464;13.480;2023-10-13T07:34:52;12.97;;;9.07;;
9310;SDS011;4694;52.464;13.480;2023-10-13T07:37:23;11.90;;;7.95;;
9310;SDS011;4694;52.464;13.480;2023-10-13T07:39:55;20.77;;;8.75;;
9310;SDS011;4694;52.464;13.480;2023-10-13T07:42:23;12.70;;;7.60;;
9310;SDS011;4694;52.464;13.480;2023-10-13T07:44:57;13.40;;;8.27;;
9310;SDS011;4694;52.464;13.480;2023-10-13T07:47:25;15.45;;;9.75;;
9310;SDS011;4694;52.464;13.480;2023-10-13T07:49:53;11.63;;;7.95;;
9310;SDS011;4694;52.464;13.480;2023-10-13T07:52:21;12.57;;;7.60;;
9310;SDS011;4694;52.464;13.480;2023-10-13T07:55:02;22.05;;;10.18;;
9310;SDS011;4694;52.464;13.480;2023-10-13T07:57:38;11.43;;;7.05;;
9310;SDS011;4694;52.464;13.480;2023-10-13T08:00:19;12.68;;;7.72;;
9310;SDS011;4694;52.464;13.480;2023-10-13T08:02:56;10.68;;;7.22;;
9310;SDS011;4694;52.464;13.480;2023-10-13T08:05:32;10.20;;;7.80;;
9310;SDS011;4694;52.464;13.480;2023-10-13T08:08:07;12.05;;;7.72;;
9310;SDS011;4694;52.464;13.480;2023-10-13T08:10:40;11.80;;;8.00;;
9310;SDS011;4694;52.464;13.480;2023-10-13T08:13:10;9.63;;;6.70;;
9310;SDS011;4694;52.464;13.480;2023-10-13T08:15:39;15.73;;;7.35;;
9310;SDS011;4694;52.464;13.480;2023-10-13T08:18:12;8.07;;;6.53;;
9310;SDS011;4694;52.464;13.480;2023-10-13T08:20:45;13.57;;;7.38;;
9310;SDS011;4694;52.464;13.480;2023-10-13T08:23:16;11.45;;;7.20;;
9310;SDS011;4694;52.464;13.480;2023-10-13T08:26:10;12.68;;;6.60;;
9310;SDS011;4694;52.464;13.480;2023-10-13T08:28:54;11.38;;;8.20;;
9310;SDS011;4694;52.464;13.480;2023-10-13T08:31:22;9.40;;;6.40;;
9310;SDS011;4694;52.464;13.480;2023-10-13T08:33:47;10.05;;;7.43;;
9310;SDS011;4694;52.464;13.480;2023-10-13T08:36:16;9.52;;;7.85;;
9310;SDS011;4694;52.464;13.480;2023-10-13T08:38:53;11.07;;;7.95;;
9310;SDS011;4694;52.464;13.480;2023-10-13T08:41:22;11.23;;;6.90;;
9310;SDS011;4694;52.464;13.480;2023-10-13T08:43:58;11.77;;;6.38;;
9310;SDS011;4694;52.464;13.480;2023-10-13T08:46:31;6.88;;;5.50;;
9310;SDS011;4694;52.464;13.480;2023-10-13T08:49:17;12.70;;;6.00;;
9310;SDS011;4694;52.464;13.480;2023-10-13T08:51:48;9.15;;;6.20;;
9310;SDS011;4694;52.464;13.480;2023-10-13T08:54:30;10.23;;;6.32;;
9310;SDS011;4694;52.464;13.480;2023-10-13T08:57:12;11.00;;;5.93;;
9310;SDS011;4694;52.464;13.480;2023-10-13T08:59:58;8.10;;;5.50;;
9310;SDS011;4694;52.464;13.480;2023-10-13T09:02:45;8.45;;;5.80;;
9310;SDS011;4694;52.464;13.480;2023-10-13T09:05:46;11.65;;;6.10;;
9310;SDS011;4694;52.464;13.480;2023-10-13T09:08:27;8.93;;;6.28;;
9310;SDS011;4694;52.464;13.480;2023-10-13T09:11:01;12.05;;;6.78;;
9310;SDS011;4694;52.464;13.480;2023-10-13T09:13:38;9.82;;;5.45;;
9310;SDS011;4694;52.464;13.480;2023-10-13T09:16:12;7.30;;;5.78;;
9310;SDS011;4694;52.464;13.480;2023-10-13T09:18:47;11.15;;;6.20;;
9310;SDS011;4694;52.464;13.480;2023-10-13T09:21:16;9.95;;;5.95;;
9310;SDS011;4694;52.464;13.480;2023-10-13T09:24:08;13.38;;;6.07;;
9310;SDS011;4694;52.464;13.480;2023-10-13T09:26:46;7.65;;;6.57;;
9310;SDS011;4694;52.464;13.480;2023-10-13T09:29:16;10.55;;;6.13;;
9310;SDS011;4694;52.464;13.480;2023-10-13T09:31:43;13.10;;;6.95;;
9310;SDS011;4694;52.464;13.480;2023-10-13T09:34:19;9.27;;;6.38;;
9310;SDS011;4694;52.464;13.480;2023-10-13T09:36:45;7.25;;;5.32;;
9310;SDS011;4694;52.464;13.480;2023-10-13T09:39:22;7.75;;;5.43;;
9310;SDS011;4694;52.464;13.480;2023-10-13T09:42:04;7.45;;;6.40;;
9310;SDS011;4694;52.464;13.480;2023-10-13T09:44:36;10.52;;;5.65;;
9310;SDS011;4694;52.464;13.480;2023-10-13T09:47:07;9.43;;;6.10;;
9310;SDS011;4694;52.464;13.480;2023-10-13T09:49:45;8.07;;;6.05;;
9310;SDS011;4694;52.464;13.480;2023-10-13T09:52:15;12.30;;;7.15;;
9310;SDS011;4694;52.464;13.480;2023-10-13T09:54:51;11.15;;;7.18;;
9310;SDS011;4694;52.464;13.480;2023-10-13T09:57:27;8.65;;;6.00;;
9310;SDS011;4694;52.464;13.480;2023-10-13T10:00:08;11.85;;;7.45;;
9310;SDS011;4694;52.464;13.480;2023-10-13T10:02:54;8.98;;;6.53;;
9310;SDS011;4694;52.464;13.480;2023-10-13T10:05:24;16.55;;;7.57;;
9310;SDS011;4694;52.464;13.480;2023-10-13T10:07:54;12.93;;;6.38;;
9310;SDS011;4694;52.464;13.480;2023-10-13T10:10:26;8.63;;;7.22;;
9310;SDS011;4694;52.464;13.480;2023-10-13T10:13:12;10.52;;;6.53;;
9310;SDS011;4694;52.464;13.480;2023-10-13T10:15:46;9.98;;;6.93;;
9310;SDS011;4694;52.464;13.480;2023-10-13T10:18:17;8.93;;;5.65;;
9310;SDS011;4694;52.464;13.480;2023-10-13T10:20:48;8.98;;;6.05;;
9310;SDS011;4694;52.464;13.480;2023-10-13T10:23:26;8.82;;;6.03;;
9310;SDS011;4694;52.464;13.480;2023-10-13T10:26:08;10.20;;;5.72;;
9310;SDS011;4694;52.464;13.480;2023-10-13T10:28:36;12.57;;;7.20;;
9310;SDS011;4694;52.464;13.480;2023-10-13T10:31:08;6.10;;;5.22;;
9310;SDS011;4694;52.464;13.480;2023-10-13T10:33:37;11.57;;;6.00;;
9310;SDS011;4694;52.464;13.480;2023-10-13T10:36:04;8.45;;;5.95;;
9310;SDS011;4694;52.464;13.480;2023-10-13T10:38:37;6.28;;;5.68;;
9310;SDS011;4694;52.464;13.480;2023-10-13T10:41:04;8.27;;;6.63;;
9310;SDS011;4694;52.464;13.480;2023-10-13T10:43:35;11.00;;;6.80;;
9310;SDS011;4694;52.464;13.480;2023-10-13T10:46:09;9.18;;;6.28;;
9310;SDS011;4694;52.464;13.480;2023-10-13T10:48:38;18.27;;;6.75;;
9310;SDS011;4694;52.464;13.480;2023-10-13T10:51:09;7.25;;;5.63;;
9310;SDS011;4694;52.464;13.480;2023-10-13T10:53:47;8.52;;;6.53;;
9310;SDS011;4694;52.464;13.480;2023-10-13T10:56:15;13.43;;;6.35;;
9310;SDS011;4694;52.464;13.480;2023-10-13T10:58:50;10.15;;;6.45;;
9310;SDS011;4694;52.464;13.480;2023-10-13T11:03:54;10.30;;;6.63;;
9310;SDS011;4694;52.464;13.480;2023-10-13T11:06:32;10.35;;;6.40;;
9310;SDS011;4694;52.464;13.480;2023-10-13T11:09:03;9.63;;;6.45;;
9310;SDS011;4694;52.464;13.480;2023-10-13T11:11:34;13.20;;;7.00;;
9310;SDS011;4694;52.464;13.480;2023-10-13T11:14:01;8.15;;;5.93;;
9310;SDS011;4694;52.464;13.480;2023-10-13T11:16:49;13.77;;;7.13;;
9310;SDS011;4694;52.464;13.480;2023-10-13T11:19:18;10.18;;;8.10;;
9310;SDS011;4694;52.464;13.480;2023-10-13T11:21:52;16.08;;;6.40;;
9310;SDS011;4694;52.464;13.480;2023-10-13T11:26:47;9.52;;;7.43;;
9310;SDS011;4694;52.464;13.480;2023-10-13T11:29:15;9.48;;;7.05;;
9310;SDS011;4694;52.464;13.480;2023-10-13T11:31:44;11.27;;;6.30;;
9310;SDS011;4694;52.464;13.480;2023-10-13T11:34:17;13.32;;;7.13;;
9310;SDS011;4694;52.464;13.480;2023-10-13T11:36:43;8.50;;;6.07;;
9310;SDS011;4694;52.464;13.480;2023-10-13T11:39:10;14.68;;;7.28;;
9310;SDS011;4694;52.464;13.480;2023-10-13T11:41:42;9.18;;;6.75;;
9310;SDS011;4694;52.464;13.480;2023-10-13T11:44:18;8.68;;;6.30;;
9310;SDS011;4694;52.464;13.480;2023-10-13T11:46:56;8.27;;;5.78;;
9310;SDS011;4694;52.464;13.480;2023-10-13T11:49:36;10.90;;;7.50;;
9310;SDS011;4694;52.464;13.480;2023-10-13T11:52:04;13.52;;;6.82;;
9310;SDS011;4694;52.464;13.480;2023-10-13T11:54:43;10.90;;;6.82;;
9310;SDS011;4694;52.464;13.480;2023-10-13T11:57:09;13.68;;;6.18;;
9310;SDS011;4694;52.464;13.480;2023-10-13T11:59:35;13.10;;;6.20;;
9310;SDS011;4694;52.464;13.480;2023-10-13T12:02:11;9.25;;;5.72;;
9310;SDS011;4694;52.464;13.480;2023-10-13T12:04:57;10.40;;;6.88;;
9310;SDS011;4694;52.464;13.480;2023-10-13T12:07:24;8.00;;;5.88;;
9310;SDS011;4694;52.464;13.480;2023-10-13T12:10:05;11.50;;;6.22;;
9310;SDS011;4694;52.464;13.480;2023-10-13T12:12:40;9.70;;;5.40;;
9310;SDS011;4694;52.464;13.480;2023-10-13T12:15:08;18.05;;;7.18;;
9310;SDS011;4694;52.464;13.480;2023-10-13T12:17:40;8.50;;;7.07;;
9310;SDS011;4694;52.464;13.480;2023-10-13T12:20:11;12.35;;;5.95;;
9310;SDS011;4694;52.464;13.480;2023-10-13T12:22:44;8.38;;;5.57;;
9310;SDS011;4694;52.464;13.480;2023-10-13T12:25:20;10.95;;;5.95;;
9310;SDS011;4694;52.464;13.480;2023-10-13T12:27:59;13.30;;;5.97;;
9310;SDS011;4694;52.464;13.480;2023-10-13T12:30:38;10.32;;;5.93;;
9310;SDS011;4694;52.464;13.480;2023-10-13T12:33:14;10.90;;;6.22;;
9310;SDS011;4694;52.464;13.480;2023-10-13T12:35:50;11.48;;;6.63;;
9310;SDS011;4694;52.464;13.480;2023-10-13T12:38:30;11.55;;;5.05;;
9310;SDS011;4694;52.464;13.480;2023-10-13T12:41:14;11.25;;;6.38;;
9310;SDS011;4694;52.464;13.480;2023-10-13T12:43:58;11.93;;;5.82;;
9310;SDS011;4694;52.464;13.480;2023-10-13T12:46:43;10.15;;;4.95;;
9310;SDS011;4694;52.464;13.480;2023-10-13T12:49:27;12.95;;;5.88;;
9310;SDS011;4694;52.464;13.480;2023-10-13T12:52:15;13.52;;;5.95;;
9310;SDS011;4694;52.464;13.480;2023-10-13T12:54:44;14.85;;;6.35;;
9310;SDS011;4694;52.464;13.480;2023-10-13T12:57:13;8.65;;;5.75;;
9310;SDS011;4694;52.464;13.480;2023-10-13T12:59:40;18.67;;;5.45;;
9310;SDS011;4694;52.464;13.480;2023-10-13T13:02:07;14.10;;;7.50;;
9310;SDS011;4694;52.464;13.480;2023-10-13T13:04:39;13.55;;;6.97;;
9310;SDS011;4694;52.464;13.480;2023-10-13T13:07:09;9.60;;;5.13;;
9310;SDS011;4694;52.464;13.480;2023-10-13T13:09:40;9.17;;;4.97;;
9310;SDS011;4694;52.464;13.480;2023-10-13T13:12:06;10.68;;;4.95;;
9310;SDS011;4694;52.464;13.480;2023-10-13T13:14:33;8.13;;;5.20;;
9310;SDS011;4694;52.464;13.480;2023-10-13T13:17:00;9.27;;;5.50;;
9310;SDS011;4694;52.464;13.480;2023-10-13T13:19:30;9.15;;;5.47;;
9310;SDS011;4694;52.464;13.480;2023-10-13T13:22:01;15.18;;;6.18;;
9310;SDS011;4694;52.464;13.480;2023-10-13T13:24:28;10.95;;;5.55;;
9310;SDS011;4694;52.464;13.480;2023-10-13T13:26:57;10.10;;;4.63;;
9310;SDS011;4694;52.464;13.480;2023-10-13T13:29:27;12.98;;;5.47;;
9310;SDS011;4694;52.464;13.480;2023-10-13T13:31:55;10.20;;;5.82;;
9310;SDS011;4694;52.464;13.480;2023-10-13T13:34:22;10.55;;;5.38;;
9310;SDS011;4694;52.464;13.480;2023-10-13T13:36:48;9.18;;;5.40;;
9310;SDS011;4694;52.464;13.480;2023-10-13T13:39:17;9.52;;;4.95;;
9310;SDS011;4694;52.464;13.480;2023-10-13T13:41:53;14.18;;;5.60;;
9310;SDS011;4694;52.464;13.480;2023-10-13T13:44:23;14.30;;;6.35;;
9310;SDS011;4694;52.464;13.480;2023-10-13T13:46:54;12.60;;;5.78;;
9310;SDS011;4694;52.464;13.480;2023-10-13T13:49:22;9.05;;;5.15;;
9310;SDS011;4694;52.464;13.480;2023-10-13T13:51:55;12.35;;;5.15;;
9310;SDS011;4694;52.464;13.480;2023-10-13T13:54:22;11.70;;;5.78;;
9310;SDS011;4694;52.464;13.480;2023-10-13T13:56:51;11.38;;;6.15;;
9310;SDS011;4694;52.464;13.480;2023-10-13T13:59:18;12.65;;;4.63;;
9310;SDS011;4694;52.464;13.480;2023-10-13T14:01:46;8.15;;;5.35;;
9310;SDS011;4694;52.464;13.480;2023-10-13T14:04:13;11.93;;;6.03;;
9310;SDS011;4694;52.464;13.480;2023-10-13T14:06:43;8.75;;;4.43;;
9310;SDS011;4694;52.464;13.480;2023-10-13T14:09:11;10.45;;;5.55;;
9310;SDS011;4694;52.464;13.480;2023-10-13T14:11:47;10.15;;;6.03;;
9310;SDS011;4694;52.464;13.480;2023-10-13T14:14:33;13.50;;;5.15;;
9310;SDS011;4694;52.464;13.480;2023-10-13T14:17:01;13.65;;;4.85;;
9310;SDS011;4694;52.464;13.480;2023-10-13T14:19:33;12.77;;;4.35;;
9310;SDS011;4694;52.464;13.480;2023-10-13T14:22:05;12.68;;;4.70;;
9310;SDS011;4694;52.464;13.480;2023-10-13T14:24:32;17.48;;;5.32;;
9310;SDS011;4694;52.464;13.480;2023-10-13T14:27:00;8.50;;;4.45;;
9310;SDS011;4694;52.464;13.480;2023-10-13T14:29:34;7.85;;;3.92;;
9310;SDS011;4694;52.464;13.480;2023-10-13T14:32:06;9.07;;;4.10;;
9310;SDS011;4694;52.464;13.480;2023-10-13T14:34:38;9.60;;;4.82;;
9310;SDS011;4694;52.464;13.480;2023-10-13T14:37:05;10.27;;;4.32;;
9310;SDS011;4694;52.464;13.480;2023-10-13T14:39:32;9.88;;;4.97;;
9310;SDS011;4694;52.464;13.480;2023-10-13T14:42:02;8.80;;;4.95;;
9310;SDS011;4694;52.464;13.480;2023-10-13T14:44:30;9.93;;;4.65;;
9310;SDS011;4694;52.464;13.480;2023-10-13T14:46:57;8.18;;;4.13;;
9310;SDS011;4694;52.464;13.480;2023-10-13T14:49:25;12.75;;;4.78;;
9310;SDS011;4694;52.464;13.480;2023-10-13T14:51:52;11.07;;;5.18;;
9310;SDS011;4694;52.464;13.480;2023-10-13T14:54:21;8.40;;;4.50;;
9310;SDS011;4694;52.464;13.480;2023-10-13T14:56:57;16.92;;;6.07;;
9310;SDS011;4694;52.464;13.480;2023-10-13T14:59:25;26.05;;;6.40;;
9310;SDS011;4694;52.464;13.480;2023-10-13T15:01:52;10.30;;;5.38;;
9310;SDS011;4694;52.464;13.480;2023-10-13T15:04:19;14.25;;;5.63;;
9310;SDS011;4694;52.464;13.480;2023-10-13T15:09:17;12.13;;;5.93;;
9310;SDS011;4694;52.464;13.480;2023-10-13T15:11:48;16.00;;;7.70;;
9310;SDS011;4694;52.464;13.480;2023-10-13T15:14:17;9.97;;;5.27;;
9310;SDS011;4694;52.464;13.480;2023-10-13T15:16:45;12.40;;;6.28;;
9310;SDS011;4694;52.464;13.480;2023-10-13T15:19:13;11.00;;;5.40;;
9310;SDS011;4694;52.464;13.480;2023-10-13T15:21:41;10.25;;;5.18;;
9310;SDS011;4694;52.464;13.480;2023-10-13T15:24:15;16.73;;;7.25;;
9310;SDS011;4694;52.464;13.480;2023-10-13T15:26:43;13.85;;;6.22;;
9310;SDS011;4694;52.464;13.480;2023-10-13T15:29:13;10.32;;;6.30;;
9310;SDS011;4694;52.464;13.480;2023-10-13T15:31:41;15.55;;;6.57;;
9310;SDS011;4694;52.464;13.480;2023-10-13T15:34:20;11.57;;;5.93;;
9310;SDS011;4694;52.464;13.480;2023-10-13T15:36:51;11.30;;;7.32;;